Time;durP1;ratioP1;P1;durP2;ratioP2;P2;SDS_P1;SDS_P2;PMS_P1;PMS_P2;Temp;Humidity;BMP_temperature;BMP_pressure;BME280_temperature;BME280_humidity;BME280_pressure;Samples;Min_cycle;Max_cycle;Signal;HPM_P1;HPM_P2
2022/01/20 00:03:55;;;;;;;43.60;21.10;;;;;;;-0.20;76.67;98429.22;108444;1274;22563;-76
2022/01/20 00:07:15;;;;;;;38.60;22.10;;;;;;;-0.16;76.79;98425.35;108459;1274;22547;-74
2022/01/20 00:28:19;;;;;;;32.30;15.60;;;;;;;-0.29;77.09;98415.92;108438;1274;22573;-76
2022/01/20 00:33:33;;;;;;;30.90;15.30;;;;;;;-0.22;77.42;98409.76;108443;1273;22577;-75
2022/01/20 00:38:38;;;;;;;25.80;12.80;;;;;;;-0.22;77.80;98406.33;108425;1273;22580;-75
2022/01/20 00:41:09;;;;;;;24.80;15.30;;;;;;;-0.23;77.59;98395.91;108453;1273;22559;-77
2022/01/20 00:43:36;;;;;;;28.20;14.60;;;;;;;-0.26;77.54;98393.59;108438;1273;22610;-78
2022/01/20 00:46:03;;;;;;;28.00;14.60;;;;;;;-0.28;77.43;98390.42;108439;1273;25319;-75
2022/01/20 00:48:30;;;;;;;27.80;15.30;;;;;;;-0.29;77.40;98387.36;108422;1273;22560;-75
2022/01/20 00:50:57;;;;;;;30.10;14.90;;;;;;;-0.27;77.29;98384.39;108445;1273;22640;-75
2022/01/20 00:53:24;;;;;;;28.40;15.20;;;;;;;-0.23;77.61;98382.22;108427;1273;22631;-75
2022/01/20 00:55:51;;;;;;;28.40;14.10;;;;;;;-0.19;77.67;98381.97;108445;1273;22553;-75
2022/01/20 00:58:18;;;;;;;27.40;12.90;;;;;;;-0.17;78.10;98379.83;108436;1273;22888;-76
2022/01/20 01:00:45;;;;;;;25.40;12.10;;;;;;;-0.16;78.11;98381.17;108445;1273;25478;-76
2022/01/20 01:03:12;;;;;;;22.90;12.20;;;;;;;-0.15;77.82;98376.88;108430;1273;22857;-78
2022/01/20 01:05:51;;;;;;;24.90;13.40;;;;;;;-0.15;77.58;98371.41;108439;1273;22556;-77
2022/01/20 01:08:18;;;;;;;26.00;12.70;;;;;;;-0.18;77.61;98364.45;108467;1273;25089;-81
2022/01/20 01:10:49;;;;;;;21.40;11.50;;;;;;;-0.18;77.61;98364.33;108463;1273;22591;-79
2022/01/20 01:13:17;;;;;;;23.30;12.80;;;;;;;-0.17;77.51;98362.88;108455;1273;25354;-76
2022/01/20 01:15:47;;;;;;;25.80;14.30;;;;;;;-0.11;77.68;98359.16;108461;1273;22738;-79
2022/01/20 01:23:36;;;;;;;21.40;12.10;;;;;;;-0.06;78.30;98338.79;108444;1273;22566;-76
2022/01/20 01:26:05;;;;;;;24.60;13.40;;;;;;;-0.06;77.92;98337.59;108464;1273;22553;-77
2022/01/20 01:28:33;;;;;;;24.50;13.10;;;;;;;-0.07;77.80;98339.70;108437;1273;22700;-76
2022/01/20 01:31:26;;;;;;;21.70;11.40;;;;;;;-0.08;77.73;98333.73;108462;1273;23193;-77
2022/01/20 01:33:56;;;;;;;25.50;13.50;;;;;;;-0.10;77.57;98323.85;108428;1273;22547;-77
2022/01/20 01:36:26;;;;;;;22.20;11.60;;;;;;;-0.11;77.50;98313.79;108440;1273;22676;-77
2022/01/20 01:38:54;;;;;;;25.70;13.50;;;;;;;-0.10;77.60;98312.23;108436;1273;22583;-77
2022/01/20 01:41:33;;;;;;;32.40;15.60;;;;;;;-0.06;77.60;98317.73;108447;1273;22632;-78
2022/01/20 01:44:06;;;;;;;27.90;15.00;;;;;;;-0.03;77.98;98307.73;108487;1273;25567;-76
2022/01/20 01:46:34;;;;;;;22.60;11.60;;;;;;;-0.01;78.42;98303.92;108540;1273;26609;-75
2022/01/20 01:49:02;;;;;;;18.10;10.30;;;;;;;-0.03;78.39;98294.90;108461;1273;22646;-73
2022/01/20 01:51:30;;;;;;;27.50;13.40;;;;;;;-0.00;78.02;98291.06;108441;1273;22791;-75
2022/01/20 01:53:57;;;;;;;24.30;10.80;;;;;;;-0.03;77.95;98290.61;108489;1273;23012;-76
2022/01/20 01:56:24;;;;;;;23.20;12.70;;;;;;;-0.04;77.82;98294.77;108491;1273;22655;-75
2022/01/20 01:58:50;;;;;;;21.30;11.90;;;;;;;-0.03;77.57;98284.80;108429;1273;24201;-75
2022/01/20 02:01:17;;;;;;;28.40;12.90;;;;;;;-0.00;77.66;98281.14;108457;1273;22547;-78
2022/01/20 02:03:47;;;;;;;24.60;13.00;;;;;;;0.07;77.83;98283.64;108474;1273;22577;-77
2022/01/20 02:06:36;;;;;;;25.90;12.90;;;;;;;0.08;77.95;98279.52;108467;1273;22552;-77
2022/01/20 02:17:59;;;;;;;18.60;10.20;;;;;;;0.07;77.79;98263.82;108267;1273;22626;-75
2022/01/20 02:20:26;;;;;;;20.80;11.60;;;;;;;0.07;77.82;98257.48;108514;1273;22574;-77
2022/01/20 02:22:53;;;;;;;21.20;11.20;;;;;;;0.08;77.56;98255.91;108518;1273;22569;-77
2022/01/20 02:25:23;;;;;;;24.00;12.90;;;;;;;0.11;77.72;98262.47;108492;1273;22583;-77
2022/01/20 02:27:51;;;;;;;21.40;12.10;;;;;;;0.13;78.15;98256.60;108466;1273;22612;-76
2022/01/20 02:30:20;;;;;;;21.80;10.90;;;;;;;0.15;78.48;98247.46;108441;1273;22559;-77
2022/01/20 02:32:56;;;;;;;18.40;9.80;;;;;;;0.17;78.51;98249.81;108445;1273;22592;-77
2022/01/20 02:35:24;;;;;;;18.40;10.30;;;;;;;0.15;78.25;98246.60;108475;1273;22564;-77
2022/01/20 02:38:09;;;;;;;16.90;9.00;;;;;;;0.14;78.07;98244.26;108454;1273;26589;-76
2022/01/20 02:45:57;;;;;;;23.70;11.80;;;;;;;0.15;77.85;98232.42;108444;1273;25380;-76
2022/01/20 02:48:25;;;;;;;17.10;9.50;;;;;;;0.19;78.10;98231.43;108440;1273;24224;-77
2022/01/20 02:50:52;;;;;;;20.10;10.60;;;;;;;0.21;78.51;98227.40;108434;1273;24423;-76
2022/01/20 02:53:18;;;;;;;18.30;9.00;;;;;;;0.22;78.74;98224.65;108446;1273;22556;-77
2022/01/20 02:55:45;;;;;;;16.30;8.30;;;;;;;0.24;78.67;98223.22;108433;1273;22744;-77
2022/01/20 02:58:12;;;;;;;15.40;7.90;;;;;;;0.25;78.24;98221.48;108440;1273;25312;-77
2022/01/20 03:00:39;;;;;;;14.60;8.50;;;;;;;0.23;78.19;98220.85;108454;1273;24405;-78
2022/01/20 03:03:06;;;;;;;11.70;6.80;;;;;;;0.24;78.00;98214.84;108453;1273;22559;-78
2022/01/20 03:05:33;;;;;;;12.00;6.10;;;;;;;0.23;77.92;98211.42;108428;1274;24246;-77
2022/01/20 03:08:01;;;;;;;12.50;7.50;;;;;;;0.23;77.77;98203.88;108441;1273;22561;-77
2022/01/20 03:10:28;;;;;;;15.90;7.80;;;;;;;0.32;77.89;98195.23;108480;1273;22583;-78
2022/01/20 03:12:57;;;;;;;14.60;7.60;;;;;;;0.38;77.94;98188.54;108445;1273;23968;-77
2022/01/20 03:15:24;;;;;;;12.40;6.40;;;;;;;0.41;78.14;98193.92;108458;1273;22583;-77
2022/01/20 03:17:52;;;;;;;12.30;5.60;;;;;;;0.41;78.07;98196.84;108430;1273;22591;-75
2022/01/20 03:20:19;;;;;;;12.30;6.70;;;;;;;0.41;77.88;98199.58;108456;1273;22698;-77
2022/01/20 03:22:46;;;;;;;11.80;6.40;;;;;;;0.41;77.74;98196.34;108455;1273;24254;-77
2022/01/20 03:25:13;;;;;;;12.20;7.50;;;;;;;0.38;77.82;98196.23;108448;1273;22576;-77
2022/01/20 03:27:40;;;;;;;10.80;6.40;;;;;;;0.37;77.75;98197.48;108445;1273;22674;-77
2022/01/20 03:30:08;;;;;;;14.40;7.70;;;;;;;0.37;77.97;98196.94;108447;1273;25366;-77
2022/01/20 03:32:35;;;;;;;17.10;9.60;;;;;;;0.42;78.35;98199.90;108444;1274;23239;-77
2022/01/20 03:35:04;;;;;;;16.90;9.20;;;;;;;0.43;78.68;98201.41;108451;1273;22570;-77
2022/01/20 03:37:30;;;;;;;12.60;6.80;;;;;;;0.43;79.01;98199.36;108487;1273;22572;-78
2022/01/20 03:39:57;;;;;;;12.70;7.30;;;;;;;0.38;79.21;98193.15;108443;1273;22559;-78
2022/01/20 03:42:24;;;;;;;13.10;7.00;;;;;;;0.33;79.19;98191.94;108425;1273;22547;-77
2022/01/20 03:44:52;;;;;;;11.70;6.80;;;;;;;0.29;79.36;98191.05;108446;1273;22620;-77
2022/01/20 03:47:21;;;;;;;12.10;7.00;;;;;;;0.23;79.58;98188.14;108447;1273;22600;-77
2022/01/20 03:52:21;;;;;;;18.60;8.80;;;;;;;0.23;80.16;98182.67;108446;1274;22577;-78
2022/01/20 03:54:48;;;;;;;15.20;9.10;;;;;;;0.21;80.50;98184.10;108435;1273;22575;-76
2022/01/20 03:57:15;;;;;;;16.70;9.50;;;;;;;0.19;80.88;98183.66;108423;1274;22768;-75
2022/01/20 03:59:42;;;;;;;14.70;8.40;;;;;;;0.17;81.30;98183.04;108452;1273;22541;-77
2022/01/20 04:02:09;;;;;;;15.20;9.50;;;;;;;0.09;81.37;98178.11;108440;1273;22562;-76
2022/01/20 04:04:36;;;;;;;13.30;7.50;;;;;;;0.05;81.30;98173.30;108443;1273;22622;-76
2022/01/20 04:07:04;;;;;;;14.60;8.30;;;;;;;0.02;81.17;98169.27;108459;1274;22561;-77
2022/01/20 04:09:32;;;;;;;16.40;8.90;;;;;;;-0.02;81.28;98162.89;108458;1274;22583;-78
2022/01/20 04:11:59;;;;;;;18.50;9.30;;;;;;;-0.02;81.62;98158.61;108425;1273;22563;-77
2022/01/20 04:14:28;;;;;;;15.40;9.30;;;;;;;-0.01;82.01;98156.20;108455;1273;22576;-77
2022/01/20 04:17:05;;;;;;;13.90;9.20;;;;;;;-0.02;82.59;98154.48;108446;1274;22547;-77
2022/01/20 04:19:32;;;;;;;11.90;7.20;;;;;;;-0.04;82.99;98153.54;108455;1273;22575;-75
2022/01/20 04:22:01;;;;;;;12.50;6.80;;;;;;;-0.08;83.06;98148.68;108440;1274;22694;-75
2022/01/20 04:24:28;;;;;;;13.60;8.20;;;;;;;-0.12;82.91;98149.48;108481;1273;22592;-76
2022/01/20 04:26:55;;;;;;;11.00;6.50;;;;;;;-0.13;82.64;98144.03;108466;1273;23099;-76
2022/01/20 04:29:22;;;;;;;19.30;10.50;;;;;;;-0.09;82.65;98141.88;108445;1273;25516;-76
2022/01/20 04:31:50;;;;;;;16.90;9.70;;;;;;;-0.10;82.82;98141.75;108462;1273;22623;-77
2022/01/20 04:34:17;;;;;;;18.60;10.70;;;;;;;-0.11;83.32;98143.14;108480;1273;22585;-75
2022/01/20 04:36:46;;;;;;;21.00;9.70;;;;;;;-0.09;83.63;98133.83;108461;1273;22560;-76
2022/01/20 04:39:18;;;;;;;22.40;9.90;;;;;;;-0.08;83.93;98123.52;108451;1273;22620;-75
2022/01/20 04:41:46;;;;;;;17.70;10.40;;;;;;;-0.10;83.84;98121.00;108455;1273;22548;-76
2022/01/20 04:44:20;;;;;;;18.00;9.60;;;;;;;-0.12;83.67;98121.77;108452;1273;22563;-76
2022/01/20 04:46:56;;;;;;;18.40;8.80;;;;;;;-0.10;83.44;98120.17;108458;1273;22545;-78
2022/01/20 04:57:40;;;;;;;18.80;10.70;;;;;;;-0.03;83.76;98122.16;108498;1273;24264;-78
2022/01/20 05:00:07;;;;;;;14.50;8.70;;;;;;;-0.03;83.92;98120.45;108446;1273;22549;-74
2022/01/20 05:02:34;;;;;;;16.40;9.00;;;;;;;-0.04;83.90;98124.07;108476;1273;22738;-76
2022/01/20 05:05:01;;;;;;;15.40;9.00;;;;;;;-0.05;83.77;98123.42;108565;1273;22623;-76
2022/01/20 05:07:29;;;;;;;15.90;8.30;;;;;;;-0.05;83.71;98122.07;108451;1274;22570;-77
2022/01/20 05:09:57;;;;;;;16.10;9.10;;;;;;;-0.05;83.52;98115.23;108439;1273;22550;-76
2022/01/20 05:12:34;;;;;;;17.70;9.60;;;;;;;-0.02;83.57;98116.83;108465;1273;22553;-77
2022/01/20 05:15:01;;;;;;;19.00;9.50;;;;;;;0.03;83.76;98115.31;108476;1273;22563;-78
2022/01/20 05:17:28;;;;;;;18.50;9.40;;;;;;;0.05;83.73;98110.30;108434;1273;22591;-77
2022/01/20 05:19:55;;;;;;;14.20;8.10;;;;;;;0.10;84.12;98112.50;108452;1273;24357;-76
2022/01/20 05:22:22;;;;;;;17.50;9.70;;;;;;;0.08;83.96;98113.80;108448;1273;22566;-77
2022/01/20 05:24:49;;;;;;;12.30;7.20;;;;;;;0.06;83.84;98123.42;108448;1273;22568;-77
2022/01/20 05:27:16;;;;;;;16.20;9.00;;;;;;;0.06;83.55;98120.55;108449;1273;22671;-77
2022/01/20 05:29:43;;;;;;;16.40;8.30;;;;;;;0.07;83.25;98116.05;108447;1273;22562;-77
2022/01/20 05:32:10;;;;;;;25.90;14.30;;;;;;;0.09;83.12;98114.11;108462;1274;22563;-76
2022/01/20 05:34:37;;;;;;;18.30;11.70;;;;;;;0.15;83.29;98111.86;108434;1273;22553;-78
2022/01/20 05:37:04;;;;;;;19.70;12.70;;;;;;;0.19;83.26;98112.75;108462;1273;22634;-76
2022/01/20 05:39:31;;;;;;;17.20;9.10;;;;;;;0.22;83.41;98108.70;108422;1273;24371;-75
2022/01/20 05:41:58;;;;;;;14.80;7.90;;;;;;;0.26;83.51;98114.93;108439;1273;22568;-75
2022/01/20 05:44:26;;;;;;;20.20;10.40;;;;;;;0.24;83.26;98110.88;108455;1274;22682;-77
2022/01/20 05:46:53;;;;;;;25.50;12.30;;;;;;;0.26;82.92;98102.58;108441;1273;22595;-77
2022/01/20 05:49:21;;;;;;;22.40;9.90;;;;;;;0.28;82.76;98106.13;108439;1273;22541;-77
2022/01/20 05:51:54;;;;;;;20.70;9.80;;;;;;;0.27;82.52;98106.14;108451;1274;25303;-75
2022/01/20 05:54:23;;;;;;;33.80;12.70;;;;;;;0.27;82.45;98096.71;108452;1273;22552;-76
2022/01/20 05:56:51;;;;;;;41.20;15.40;;;;;;;0.32;82.37;98095.36;108447;1273;24274;-77
2022/01/20 05:59:18;;;;;;;19.00;8.50;;;;;;;0.38;82.58;98104.26;108412;1274;22550;-76
2022/01/20 06:01:52;;;;;;;23.90;10.30;;;;;;;0.40;82.74;98111.05;108436;1273;22538;-77
2022/01/20 06:04:19;;;;;;;22.00;9.30;;;;;;;0.38;82.76;98108.70;108436;1273;22705;-75
2022/01/20 06:06:46;;;;;;;20.10;9.10;;;;;;;0.36;82.69;98106.01;108453;1273;22559;-76
2022/01/20 06:09:13;;;;;;;19.70;8.00;;;;;;;0.34;82.45;98106.63;108447;1273;22547;-76
2022/01/20 06:11:40;;;;;;;23.80;10.10;;;;;;;0.32;82.11;98116.95;108443;1274;22563;-77
2022/01/20 06:14:07;;;;;;;19.80;9.30;;;;;;;0.32;82.19;98115.08;108459;1273;22584;-76
2022/01/20 06:16:35;;;;;;;22.00;10.30;;;;;;;0.36;82.10;98111.16;108428;1273;22584;-76
2022/01/20 06:19:02;;;;;;;33.20;13.00;;;;;;;0.38;82.17;98112.28;108445;1273;22566;-75
2022/01/20 06:21:29;;;;;;;27.80;10.70;;;;;;;0.40;82.42;98120.81;108443;1273;22669;-75
2022/01/20 06:23:56;;;;;;;21.80;10.50;;;;;;;0.41;82.47;98126.60;108458;1273;22540;-76
2022/01/20 06:26:23;;;;;;;22.80;11.10;;;;;;;0.40;82.44;98126.45;108448;1273;22563;-75
2022/01/20 06:28:50;;;;;;;14.70;8.00;;;;;;;0.41;82.26;98130.71;108462;1274;22626;-77
2022/01/20 06:31:17;;;;;;;14.80;7.60;;;;;;;0.39;81.95;98130.09;108457;1273;22656;-77
2022/01/20 06:33:44;;;;;;;15.80;8.70;;;;;;;0.35;81.76;98129.17;108443;1273;23287;-76
2022/01/20 06:36:10;;;;;;;21.50;11.30;;;;;;;0.37;81.94;98132.19;108449;1273;22616;-75
2022/01/20 06:38:37;;;;;;;25.40;10.90;;;;;;;0.36;82.29;98133.06;108443;1273;22541;-76
2022/01/20 06:41:05;;;;;;;15.10;7.20;;;;;;;0.37;82.80;98130.65;108435;1273;22550;-76
2022/01/20 06:43:33;;;;;;;34.50;15.20;;;;;;;0.29;82.92;98129.91;108437;1273;22620;-77
2022/01/20 06:46:00;;;;;;;20.20;9.20;;;;;;;0.25;82.99;98120.45;108449;1273;25213;-77
2022/01/20 06:48:27;;;;;;;20.70;9.10;;;;;;;0.17;83.15;98120.70;108440;1274;22700;-76
2022/01/20 06:50:54;;;;;;;16.00;8.10;;;;;;;0.14;83.53;98126.60;108437;1273;22563;-76
2022/01/20 06:53:21;;;;;;;12.10;7.30;;;;;;;0.07;83.87;98127.88;108445;1273;22585;-76
2022/01/20 06:55:47;;;;;;;12.10;6.80;;;;;;;-0.01;84.22;98125.38;108456;1273;25280;-76
2022/01/20 06:58:14;;;;;;;6.40;3.30;;;;;;;-0.06;84.52;98130.97;108437;1274;22657;-76
2022/01/20 07:00:41;;;;;;;8.20;4.10;;;;;;;-0.12;84.71;98139.91;108457;1273;22621;-76
2022/01/20 07:03:08;;;;;;;14.20;6.20;;;;;;;-0.22;84.60;98143.98;108449;1273;22707;-77
2022/01/20 07:05:35;;;;;;;21.90;10.10;;;;;;;-0.21;84.52;98149.44;108430;1273;22553;-79
2022/01/20 07:08:02;;;;;;;19.20;10.00;;;;;;;-0.19;84.48;98159.45;108462;1274;22710;-78
2022/01/20 07:10:29;;;;;;;28.50;12.30;;;;;;;-0.20;84.68;98152.80;108422;1274;22563;-78
2022/01/20 07:12:56;;;;;;;26.30;12.30;;;;;;;-0.18;84.88;98154.84;108441;1274;22559;-78
2022/01/20 07:15:24;;;;;;;16.50;7.80;;;;;;;-0.19;85.17;98155.02;108426;1273;22630;-75
2022/01/20 07:17:51;;;;;;;24.50;9.70;;;;;;;-0.23;85.34;98165.04;108457;1273;22627;-78
2022/01/20 07:20:18;;;;;;;22.90;10.20;;;;;;;-0.25;84.94;98153.48;108451;1274;22567;-78
2022/01/20 07:22:45;;;;;;;45.20;17.10;;;;;;;-0.28;84.95;98150.50;108448;1273;26567;-79
2022/01/20 07:25:11;;;;;;;26.30;13.40;;;;;;;-0.25;85.01;98150.91;108457;1273;24088;-78
2022/01/20 07:27:38;;;;;;;31.90;15.30;;;;;;;-0.24;84.81;98148.83;108443;1273;26552;-78
2022/01/20 07:30:06;;;;;;;23.00;13.10;;;;;;;-0.21;85.08;98146.85;108453;1274;22564;-78
2022/01/20 07:32:33;;;;;;;27.50;13.40;;;;;;;-0.19;85.28;98144.58;108442;1273;22631;-78
2022/01/20 07:35:00;;;;;;;22.90;12.00;;;;;;;-0.18;85.49;98145.92;108427;1273;22563;-77
2022/01/20 07:37:27;;;;;;;42.80;18.80;;;;;;;-0.21;85.28;98145.48;108445;1274;22572;-78
2022/01/20 07:39:55;;;;;;;24.70;12.40;;;;;;;-0.20;85.17;98141.02;108465;1273;22602;-78
2022/01/20 07:42:22;;;;;;;40.80;19.10;;;;;;;-0.18;84.82;98138.04;108430;1274;22564;-77
2022/01/20 07:44:49;;;;;;;30.10;16.70;;;;;;;-0.14;84.68;98140.66;108442;1273;22619;-78
2022/01/20 07:47:15;;;;;;;33.10;15.00;;;;;;;-0.14;84.92;98137.23;108430;1274;22583;-81
2022/01/20 07:49:42;;;;;;;26.50;13.20;;;;;;;-0.11;85.20;98142.11;108438;1274;25429;-78
2022/01/20 07:52:10;;;;;;;23.90;11.30;;;;;;;-0.10;85.28;98143.96;108420;1274;22583;-79
2022/01/20 07:54:37;;;;;;;26.30;10.70;;;;;;;-0.14;85.09;98150.59;108448;1273;22545;-78
2022/01/20 07:57:05;;;;;;;28.60;12.10;;;;;;;-0.15;85.03;98162.08;108445;1273;22624;-79
2022/01/20 07:59:32;;;;;;;22.80;10.80;;;;;;;-0.16;84.69;98155.61;108467;1274;24408;-77
2022/01/20 08:01:59;;;;;;;27.70;12.10;;;;;;;-0.14;84.69;98151.25;108474;1274;22617;-75
2022/01/20 08:04:26;;;;;;;28.80;12.90;;;;;;;-0.13;84.74;98153.65;108457;1274;22626;-78
2022/01/20 08:06:53;;;;;;;20.20;10.00;;;;;;;-0.12;85.09;98154.80;108447;1273;25332;-76
2022/01/20 08:09:22;;;;;;;24.10;10.70;;;;;;;-0.12;85.17;98156.86;108454;1273;22620;-78
2022/01/20 08:11:49;;;;;;;24.10;11.80;;;;;;;-0.13;85.04;98156.72;108465;1273;22550;-77
2022/01/20 08:14:16;;;;;;;20.30;8.00;;;;;;;-0.10;84.84;98148.59;108437;1274;22738;-75
2022/01/20 08:16:43;;;;;;;22.80;10.00;;;;;;;-0.06;84.57;98145.55;108437;1274;22552;-76
2022/01/20 08:19:10;;;;;;;24.40;11.50;;;;;;;0.01;84.55;98146.35;108435;1274;22627;-78
2022/01/20 08:21:37;;;;;;;17.90;9.20;;;;;;;0.07;84.84;98146.19;108420;1274;22572;-78
2022/01/20 08:24:04;;;;;;;26.40;12.80;;;;;;;0.08;84.93;98143.60;108418;1274;22646;-77
2022/01/20 08:26:31;;;;;;;21.30;10.30;;;;;;;0.07;85.26;98142.58;108418;1274;22557;-76
2022/01/20 08:28:58;;;;;;;29.20;15.70;;;;;;;0.09;85.12;98139.79;108424;1274;22693;-78
2022/01/20 08:31:25;;;;;;;37.50;17.00;;;;;;;0.09;84.99;98129.98;108436;1273;22558;-75
2022/01/20 08:33:52;;;;;;;31.00;16.70;;;;;;;0.11;84.86;98123.80;108425;1274;22559;-75
2022/01/20 08:36:19;;;;;;;34.40;15.60;;;;;;;0.12;84.60;98118.96;108462;1272;22576;-78
2022/01/20 08:38:46;;;;;;;35.40;18.90;;;;;;;0.16;84.53;98111.13;108459;1274;22546;-78
2022/01/20 08:41:13;;;;;;;34.00;14.40;;;;;;;0.23;84.77;98098.41;108430;1274;22578;-75
2022/01/20 08:43:40;;;;;;;31.50;15.60;;;;;;;0.26;84.84;98087.67;108439;1274;24244;-76
2022/01/20 08:46:10;;;;;;;30.30;15.40;;;;;;;0.32;84.89;98079.27;108436;1273;25419;-78
2022/01/20 08:48:38;;;;;;;24.00;11.90;;;;;;;0.37;84.82;98068.31;108422;1274;22548;-80
2022/01/20 08:51:06;;;;;;;24.20;11.60;;;;;;;0.42;84.56;98064.41;108423;1273;25424;-77
2022/01/20 08:53:34;;;;;;;26.90;10.00;;;;;;;0.45;84.13;98060.84;108456;1274;22559;-80
2022/01/20 08:56:02;;;;;;;27.00;13.30;;;;;;;0.51;83.85;98061.02;108398;1274;25374;-79
2022/01/20 08:58:29;;;;;;;22.40;10.30;;;;;;;0.58;83.70;98049.95;108427;1274;22703;-79
2022/01/20 09:00:56;;;;;;;24.60;10.00;;;;;;;0.68;83.91;98050.30;108437;1274;22554;-80
2022/01/20 09:03:23;;;;;;;15.60;6.40;;;;;;;0.75;84.04;98044.91;108438;1274;22551;-78
2022/01/20 09:05:50;;;;;;;15.70;6.70;;;;;;;0.79;83.57;98040.31;108440;1274;22588;-79
2022/01/20 09:08:18;;;;;;;14.20;5.50;;;;;;;0.82;83.00;98027.35;108426;1274;22801;-79
2022/01/20 09:10:51;;;;;;;12.10;4.60;;;;;;;0.85;82.61;98015.23;108421;1274;22553;-77
2022/01/20 09:16:04;;;;;;;14.30;5.50;;;;;;;0.93;82.43;98016.13;108432;1273;22565;-78
2022/01/20 09:18:31;;;;;;;14.00;5.60;;;;;;;0.94;82.75;98021.08;108443;1274;22666;-77
2022/01/20 09:20:58;;;;;;;19.10;6.10;;;;;;;0.93;81.96;98029.86;108442;1274;22742;-80
2022/01/20 09:23:25;;;;;;;18.10;7.00;;;;;;;0.93;81.55;98015.64;108447;1273;22562;-80
2022/01/20 09:25:52;;;;;;;16.50;6.20;;;;;;;0.93;81.58;98012.71;108435;1274;22553;-80
2022/01/20 09:28:19;;;;;;;17.50;6.80;;;;;;;0.98;81.13;98009.63;108456;1274;22549;-80
2022/01/20 09:30:48;;;;;;;13.30;6.30;;;;;;;1.06;80.75;98012.76;108449;1273;22567;-80
2022/01/20 09:33:24;;;;;;;16.10;6.10;;;;;;;1.15;80.54;98016.73;108431;1274;22606;-79
2022/01/20 09:35:52;;;;;;;17.20;6.60;;;;;;;1.24;80.54;98011.95;108441;1273;22563;-79
2022/01/20 09:38:19;;;;;;;15.30;5.90;;;;;;;1.29;80.81;98006.41;108450;1273;22552;-78
2022/01/20 09:40:46;;;;;;;14.60;5.90;;;;;;;1.29;80.58;98004.16;108419;1273;22610;-78
2022/01/20 09:43:14;;;;;;;19.00;6.50;;;;;;;1.29;80.16;97998.18;108431;1274;22575;-78
2022/01/20 09:45:45;;;;;;;21.70;6.80;;;;;;;1.28;79.91;97996.17;108428;1274;22558;-76
2022/01/20 09:48:12;;;;;;;20.10;6.40;;;;;;;1.26;79.75;97996.39;108444;1274;22627;-77
2022/01/20 09:50:39;;;;;;;16.50;6.60;;;;;;;1.26;79.42;97999.50;108438;1274;22557;-78
2022/01/20 09:53:06;;;;;;;20.90;8.50;;;;;;;1.24;79.30;98005.92;108440;1273;22633;-76
2022/01/20 09:55:35;;;;;;;17.80;7.30;;;;;;;1.24;79.36;97997.50;108360;1274;22547;-76
2022/01/20 09:58:04;;;;;;;18.90;8.20;;;;;;;1.25;79.29;97984.08;108431;1274;22634;-79
2022/01/20 10:00:32;;;;;;;23.40;10.30;;;;;;;1.31;79.36;97982.85;108451;1274;24245;-78
2022/01/20 10:03:02;;;;;;;18.90;7.10;;;;;;;1.35;79.38;97978.20;108441;1273;22585;-78
2022/01/20 10:05:36;;;;;;;21.90;7.70;;;;;;;1.41;79.45;97974.04;108412;1274;22555;-78
2022/01/20 10:08:22;;;;;;;18.80;7.40;;;;;;;1.39;78.84;97962.27;108454;1273;22723;-79
2022/01/20 10:11:01;;;;;;;24.10;8.20;;;;;;;1.37;78.21;97956.00;108467;1274;22532;-78
2022/01/20 10:13:32;;;;;;;22.40;8.10;;;;;;;1.36;77.52;97947.98;108443;1274;22689;-77
2022/01/20 10:16:09;;;;;;;19.40;7.10;;;;;;;1.34;77.14;97948.06;108442;1274;25496;-76
2022/01/20 10:18:57;;;;;;;17.30;6.20;;;;;;;1.35;77.43;97947.69;108456;1274;22588;-77
2022/01/20 10:21:32;;;;;;;14.80;6.90;;;;;;;1.36;76.92;97939.75;108446;1274;25303;-77
2022/01/20 10:24:12;;;;;;;14.70;6.40;;;;;;;1.36;76.91;97942.13;108472;1274;22569;-76
2022/01/20 10:26:40;;;;;;;17.70;7.00;;;;;;;1.38;76.95;97938.79;108463;1274;22564;-76
2022/01/20 10:29:10;;;;;;;16.10;6.90;;;;;;;1.41;77.35;97938.00;108470;1274;22543;-76
2022/01/20 10:31:45;;;;;;;22.50;8.10;;;;;;;1.41;77.38;97949.48;108440;1274;22553;-79
2022/01/20 10:34:32;;;;;;;24.80;9.90;;;;;;;1.37;77.06;97987.24;108453;1274;22538;-79
2022/01/20 10:37:09;;;;;;;12.20;4.90;;;;;;;1.29;76.12;98053.24;108540;1274;22630;-76
2022/01/20 10:39:42;;;;;;;5.70;1.60;;;;;;;1.12;76.67;98083.02;108394;1275;24255;-75
2022/01/20 10:42:22;;;;;;;1.90;0.70;;;;;;;0.85;78.10;98084.48;108435;1274;22589;-76
2022/01/20 10:44:53;;;;;;;11.60;4.00;;;;;;;0.44;78.68;98081.77;108434;1274;22697;-76
2022/01/20 10:47:29;;;;;;;5.90;1.50;;;;;;;0.13;78.98;98074.42;108444;1274;22572;-77
2022/01/20 10:50:12;;;;;;;4.40;1.10;;;;;;;-0.16;78.95;98071.58;108440;1274;22606;-76
2022/01/20 10:52:43;;;;;;;1.70;0.50;;;;;;;-0.44;79.28;98068.52;108410;1274;22583;-76
2022/01/20 10:55:25;;;;;;;3.90;1.00;;;;;;;-0.61;79.60;98070.04;108451;1274;22737;-75
2022/01/20 10:57:54;;;;;;;5.80;1.70;;;;;;;-0.72;79.99;98071.90;108424;1274;22569;-76
2022/01/20 11:00:25;;;;;;;5.80;1.20;;;;;;;-0.75;80.21;98062.76;108434;1274;22633;-76
2022/01/20 11:02:55;;;;;;;3.00;1.10;;;;;;;-0.81;79.61;98062.90;108436;1274;22540;-76
2022/01/20 11:05:24;;;;;;;5.90;1.50;;;;;;;-0.95;79.76;98056.98;108464;1273;22550;-77
2022/01/20 11:07:52;;;;;;;6.50;1.50;;;;;;;-1.02;79.85;98060.79;108458;1274;22576;-76
2022/01/20 11:10:19;;;;;;;6.10;1.60;;;;;;;-1.04;79.71;98059.28;108445;1274;22566;-75
2022/01/20 11:12:47;;;;;;;8.10;1.50;;;;;;;-1.01;79.63;98057.00;108495;1274;22543;-76
2022/01/20 11:15:17;;;;;;;10.30;2.70;;;;;;;-0.99;79.69;98058.14;108448;1274;24240;-75
2022/01/20 11:17:50;;;;;;;9.50;2.80;;;;;;;-0.97;79.82;98055.16;108472;1274;24381;-78
2022/01/20 11:20:21;;;;;;;8.20;3.00;;;;;;;-0.98;79.77;98052.48;108491;1274;22555;-76
2022/01/20 11:22:56;;;;;;;9.70;2.60;;;;;;;-0.97;79.54;98052.59;108433;1274;22594;-78
2022/01/20 11:25:28;;;;;;;10.80;2.80;;;;;;;-0.95;79.34;98049.81;108441;1274;22553;-76
2022/01/20 11:28:15;;;;;;;14.50;4.20;;;;;;;-0.95;79.35;98043.32;108455;1274;22618;-76
2022/01/20 11:30:54;;;;;;;7.80;2.60;;;;;;;-0.91;79.11;98038.26;108485;1274;22645;-75
2022/01/20 11:33:34;;;;;;;10.70;2.80;;;;;;;-0.85;79.15;98029.20;108454;1274;22712;-76
2022/01/20 11:36:02;;;;;;;5.70;1.90;;;;;;;-0.80;79.38;98024.76;108476;1274;22551;-76
2022/01/20 11:38:46;;;;;;;5.90;1.80;;;;;;;-0.76;79.26;98023.10;108451;1274;22558;-78
2022/01/20 11:41:16;;;;;;;5.00;1.80;;;;;;;-0.78;79.34;98020.59;108423;1274;22599;-79
2022/01/20 11:43:49;;;;;;;9.90;2.70;;;;;;;-0.81;79.15;98020.51;108442;1274;22697;-80
2022/01/20 11:46:18;;;;;;;;;;;;;;;-0.85;79.15;98023.38;108485;1274;23888;-78
2022/01/20 11:49:06;;;;;;;7.50;2.50;;;;;;;-0.86;79.28;98020.33;108458;1274;25443;-79
2022/01/20 11:51:55;;;;;;;9.20;2.50;;;;;;;-0.83;79.38;98029.80;108433;1274;22553;-78
2022/01/20 11:54:25;;;;;;;8.80;2.20;;;;;;;-0.81;79.53;98039.30;108448;1274;22620;-77
2022/01/20 11:57:09;;;;;;;6.50;1.80;;;;;;;-0.79;79.81;98061.33;108480;1274;23246;-78
2022/01/20 11:59:43;;;;;;;6.40;2.30;;;;;;;-0.95;80.72;98078.38;108487;1274;22587;-77
2022/01/20 12:02:23;;;;;;;4.80;1.20;;;;;;;-1.15;79.97;98097.55;108475;1274;23935;-78
2022/01/20 12:04:51;;;;;;;5.50;1.50;;;;;;;-1.25;79.34;98091.48;108338;1275;22553;-79
2022/01/20 12:07:30;;;;;;;7.40;1.90;;;;;;;-1.31;79.27;98089.25;108462;1274;22563;-78
2022/01/20 12:10:04;;;;;;;3.80;1.20;;;;;;;-1.40;78.86;98084.72;108451;1274;22549;-79
2022/01/20 12:12:32;;;;;;;4.60;1.60;;;;;;;-1.50;78.88;98086.14;108456;1274;22697;-80
2022/01/20 12:15:10;;;;;;;5.90;1.90;;;;;;;-1.55;78.31;98079.45;108459;1274;22557;-79
2022/01/20 12:17:41;;;;;;;5.30;1.70;;;;;;;-1.61;77.67;98074.80;108420;1274;23873;-79
2022/01/20 12:20:11;;;;;;;5.40;1.40;;;;;;;-1.66;76.92;98070.35;108447;1274;22560;-80
2022/01/20 12:22:41;;;;;;;3.80;1.20;;;;;;;-1.64;76.23;98070.47;108450;1274;24292;-80
2022/01/20 12:25:16;;;;;;;6.30;1.70;;;;;;;-1.63;75.60;98070.95;108420;1274;22664;-79
2022/01/20 12:27:44;;;;;;;4.30;1.20;;;;;;;-1.63;75.34;98077.80;108448;1274;22582;-77
2022/01/20 12:30:24;;;;;;;5.00;1.20;;;;;;;-1.68;74.15;98077.21;108533;1274;22559;-77